createdAt,value
2022-12-20T00:01:56.393Z,2.10
2022-12-20T00:04:24.781Z,2.10
2022-12-20T00:06:52.926Z,2.10
2022-12-20T00:09:26.063Z,2.10
2022-12-20T00:12:00.682Z,2.20
2022-12-20T00:14:33.332Z,2.10
2022-12-20T00:17:09.128Z,2.10
2022-12-20T00:19:45.094Z,2.20
2022-12-20T00:22:17.055Z,2.20
2022-12-20T00:24:59.535Z,2.20
2022-12-20T00:27:32.123Z,2.20
2022-12-20T00:30:03.891Z,2.20
2022-12-20T00:32:35.988Z,2.20
2022-12-20T00:35:08.106Z,2.20
2022-12-20T00:37:39.449Z,2.20
2022-12-20T00:40:18.663Z,2.20
2022-12-20T00:42:48.286Z,2.20
2022-12-20T00:45:16.734Z,2.10
2022-12-20T00:47:44.865Z,2.10
2022-12-20T00:50:13.581Z,2.10
2022-12-20T00:52:41.641Z,2.10
2022-12-20T00:55:11.284Z,2.10
2022-12-20T00:57:41.799Z,2.20
2022-12-20T01:00:11.475Z,2.30
2022-12-20T01:02:40.754Z,2.40
2022-12-20T01:05:09.691Z,2.30
2022-12-20T01:07:39.866Z,2.30
2022-12-20T01:10:10.988Z,2.30
2022-12-20T01:12:39.142Z,2.10
2022-12-20T01:15:08.902Z,2.10
2022-12-20T01:17:38.113Z,2.10
2022-12-20T01:20:07.604Z,2.10
2022-12-20T01:22:35.785Z,2.20
2022-12-20T01:25:03.973Z,2.20
2022-12-20T01:27:33.783Z,2.30
2022-12-20T01:30:02.097Z,2.30
2022-12-20T01:32:30.190Z,2.30
2022-12-20T01:34:58.262Z,2.30
2022-12-20T01:37:26.347Z,2.20
2022-12-20T01:39:54.516Z,2.10
2022-12-20T01:42:22.785Z,2.00
2022-12-20T01:44:59.864Z,1.90
2022-12-20T01:47:32.789Z,1.90
2022-12-20T01:50:04.092Z,1.80
2022-12-20T01:52:36.919Z,1.80
2022-12-20T01:55:10.909Z,1.80
2022-12-20T01:57:45.404Z,1.70
2022-12-20T02:00:17.533Z,1.70
2022-12-20T02:02:47.682Z,1.60
2022-12-20T02:05:16.943Z,1.60
2022-12-20T02:07:48.804Z,1.50
2022-12-20T02:10:18.530Z,1.50
2022-12-20T02:12:47.877Z,1.50
2022-12-20T02:15:33.477Z,1.50
2022-12-20T02:18:17.323Z,1.50
2022-12-20T02:21:09.438Z,1.60
2022-12-20T02:24:28.788Z,1.70
2022-12-20T02:27:28.817Z,1.80
2022-12-20T02:30:11.388Z,1.90
2022-12-20T02:32:45.737Z,2.00
2022-12-20T02:35:21.296Z,2.00
2022-12-20T02:37:51.154Z,2.00
2022-12-20T02:40:24.711Z,2.10
2022-12-20T02:42:57.397Z,2.00
2022-12-20T02:45:29.359Z,2.10
2022-12-20T02:48:00.690Z,2.00
2022-12-20T02:50:36.997Z,2.10
2022-12-20T02:53:07.455Z,2.10
2022-12-20T02:55:43.914Z,2.20
2022-12-20T02:58:19.391Z,2.20
2022-12-20T03:00:52.163Z,2.10
2022-12-20T03:03:24.283Z,2.10
2022-12-20T03:05:54.575Z,2.10
2022-12-20T03:08:25.083Z,2.20
2022-12-20T03:10:55.541Z,2.20
2022-12-20T03:13:25.268Z,2.20
2022-12-20T03:16:02.450Z,2.20
2022-12-20T03:18:30.688Z,2.10
2022-12-20T03:20:58.778Z,2.10
2022-12-20T03:23:26.926Z,2.10
2022-12-20T03:25:55.528Z,2.10
2022-12-20T03:28:43.766Z,2.20
2022-12-20T03:31:16.557Z,2.20
2022-12-20T03:33:49.444Z,2.30
2022-12-20T03:36:23.347Z,2.30
2022-12-20T03:38:56.598Z,2.20
2022-12-20T03:41:26.974Z,2.20
2022-12-20T03:43:55.447Z,2.20
2022-12-20T03:46:26.672Z,2.20
2022-12-20T03:48:55.247Z,2.30
2022-12-20T03:51:24.269Z,2.30
2022-12-20T03:53:52.746Z,2.30
2022-12-20T03:56:27.214Z,2.30
2022-12-20T03:58:56.552Z,2.30
2022-12-20T04:01:27.858Z,2.30
2022-12-20T04:03:57.757Z,2.30
2022-12-20T04:06:26.023Z,2.30
2022-12-20T04:08:54.073Z,2.20
2022-12-20T04:11:28.351Z,2.20
2022-12-20T04:14:08.172Z,2.20
2022-12-20T04:16:38.097Z,2.20
2022-12-20T04:19:10.165Z,2.20
2022-12-20T04:21:42.626Z,2.20
2022-12-20T04:24:11.475Z,2.10
2022-12-20T04:26:45.124Z,2.10
2022-12-20T04:29:14.623Z,2.00
2022-12-20T04:31:45.285Z,2.00
2022-12-20T04:34:13.663Z,1.90
2022-12-20T04:36:41.882Z,1.90
2022-12-20T04:39:16.129Z,1.90
2022-12-20T04:42:09.885Z,1.80
2022-12-20T04:44:38.666Z,1.90
2022-12-20T04:47:08.159Z,1.90
2022-12-20T04:49:36.274Z,1.90
2022-12-20T04:52:18.489Z,2.00
2022-12-20T04:54:47.787Z,2.00
2022-12-20T04:57:20.383Z,2.10
2022-12-20T04:59:48.589Z,2.10
2022-12-20T05:02:18.225Z,2.10
2022-12-20T05:04:51.685Z,2.10
2022-12-20T05:07:22.450Z,2.10
2022-12-20T05:09:55.730Z,2.10
2022-12-20T05:12:24.411Z,2.00
2022-12-20T05:14:53.598Z,2.00
2022-12-20T05:17:24.858Z,2.00
2022-12-20T05:19:54.434Z,2.00
2022-12-20T05:22:41.000Z,2.00
2022-12-20T05:25:29.916Z,1.90
2022-12-20T05:28:01.280Z,1.90
2022-12-20T05:30:34.143Z,1.80
2022-12-20T05:33:03.836Z,1.90
2022-12-20T05:35:33.055Z,2.00
2022-12-20T05:38:07.918Z,2.00
2022-12-20T05:40:36.846Z,2.10
2022-12-20T05:43:06.232Z,2.10
2022-12-20T05:45:46.358Z,2.10
2022-12-20T05:48:18.218Z,2.20
2022-12-20T05:50:47.109Z,2.30
2022-12-20T05:53:30.285Z,2.30
2022-12-20T05:56:02.437Z,2.30
2022-12-20T05:58:33.600Z,2.30
2022-12-20T06:01:04.211Z,2.40
2022-12-20T06:03:38.573Z,2.40
2022-12-20T06:06:14.583Z,2.50
2022-12-20T06:08:45.789Z,2.50
2022-12-20T06:11:30.405Z,2.50
2022-12-20T06:14:06.197Z,2.50
2022-12-20T06:16:36.713Z,2.50
2022-12-20T06:19:09.729Z,2.60
2022-12-20T06:21:38.259Z,2.60
2022-12-20T06:24:08.117Z,2.60
2022-12-20T06:26:39.176Z,2.60
2022-12-20T06:29:10.225Z,2.60
2022-12-20T06:31:43.328Z,2.70
2022-12-20T06:34:12.844Z,2.70
2022-12-20T06:36:42.849Z,2.90
2022-12-20T06:39:17.522Z,2.90
2022-12-20T06:42:03.385Z,3.00
2022-12-20T06:44:31.534Z,3.10
2022-12-20T06:47:00.281Z,3.20
2022-12-20T06:49:29.913Z,3.30
2022-12-20T06:51:58.553Z,3.30
2022-12-20T06:54:34.881Z,3.30
2022-12-20T06:57:03.408Z,3.30
2022-12-20T06:59:33.006Z,3.40
2022-12-20T07:02:01.602Z,3.30
2022-12-20T07:04:34.314Z,3.40
2022-12-20T07:07:02.362Z,3.40
2022-12-20T07:09:30.519Z,3.40
2022-12-20T07:11:58.841Z,3.40
2022-12-20T07:14:27.070Z,3.40
2022-12-20T07:16:55.297Z,3.40
2022-12-20T07:19:26.094Z,3.40
2022-12-20T07:21:56.153Z,3.40
2022-12-20T07:24:24.405Z,3.30
2022-12-20T07:26:54.148Z,3.40
2022-12-20T07:29:22.229Z,3.40
2022-12-20T07:31:50.362Z,3.40
2022-12-20T07:34:18.936Z,3.40
2022-12-20T07:36:47.034Z,3.50
2022-12-20T07:39:16.465Z,3.40
2022-12-20T07:41:44.936Z,3.50
2022-12-20T07:44:17.455Z,3.40
2022-12-20T07:46:45.644Z,3.40
2022-12-20T07:49:13.677Z,3.40
2022-12-20T07:51:45.329Z,3.50
2022-12-20T07:54:18.976Z,3.50
2022-12-20T07:56:49.190Z,3.50
2022-12-20T07:59:21.474Z,3.50
2022-12-20T08:01:50.205Z,3.60
2022-12-20T08:04:21.577Z,3.60
2022-12-20T08:06:51.137Z,3.70
2022-12-20T08:09:20.929Z,3.70
2022-12-20T08:11:49.952Z,3.70
2022-12-20T08:14:19.615Z,3.70
2022-12-20T08:16:47.870Z,3.70
2022-12-20T08:19:16.079Z,3.70
2022-12-20T08:21:44.083Z,3.70
2022-12-20T08:24:12.232Z,3.80
2022-12-20T08:26:42.674Z,3.90
2022-12-20T08:29:11.097Z,3.90
2022-12-20T08:31:41.991Z,4.00
2022-12-20T08:34:14.151Z,4.00
2022-12-20T08:36:42.280Z,4.00
2022-12-20T08:39:11.407Z,4.00
2022-12-20T08:41:40.796Z,4.00
2022-12-20T08:44:09.549Z,4.10
2022-12-20T08:46:38.302Z,4.10
2022-12-20T08:49:06.731Z,4.20
2022-12-20T08:51:34.896Z,4.40
2022-12-20T08:54:03.696Z,4.50
2022-12-20T08:56:31.854Z,4.60
2022-12-20T08:59:01.456Z,4.60
2022-12-20T09:01:30.509Z,4.70
2022-12-20T09:03:58.667Z,4.70
2022-12-20T09:06:26.934Z,4.80
2022-12-20T09:08:55.705Z,4.80
2022-12-20T09:11:26.115Z,5.00
2022-12-20T09:13:57.477Z,5.00
2022-12-20T09:16:28.924Z,5.10
2022-12-20T09:19:05.000Z,5.20
2022-12-20T09:21:35.952Z,5.20
2022-12-20T09:24:04.133Z,5.30
2022-12-20T09:26:36.152Z,5.40
2022-12-20T09:29:04.347Z,5.40
2022-12-20T09:31:33.753Z,5.50
2022-12-20T09:34:02.204Z,5.50
2022-12-20T09:36:30.901Z,5.50
2022-12-20T09:38:59.259Z,5.50
2022-12-20T09:41:32.530Z,5.50
2022-12-20T09:44:05.277Z,5.50
2022-12-20T09:46:35.005Z,5.50
2022-12-20T09:49:04.007Z,5.50
2022-12-20T09:52:16.332Z,5.60
2022-12-20T09:54:52.989Z,5.60
2022-12-20T09:57:30.527Z,5.60
2022-12-20T09:59:58.941Z,5.60
2022-12-20T10:05:27.435Z,5.50
2022-12-20T10:08:04.781Z,5.40
2022-12-20T10:10:52.839Z,5.40
2022-12-20T10:13:36.230Z,5.30
2022-12-20T10:16:17.179Z,5.20
2022-12-20T10:19:01.461Z,5.20
2022-12-20T10:21:41.782Z,5.20
2022-12-20T10:24:17.391Z,5.20
2022-12-20T10:26:46.802Z,5.30
2022-12-20T10:29:14.863Z,5.40
2022-12-20T10:31:43.381Z,5.50
2022-12-20T10:34:12.820Z,5.50
2022-12-20T10:36:41.937Z,5.60
2022-12-20T10:39:11.203Z,5.60
2022-12-20T10:41:51.880Z,5.70
2022-12-20T10:44:24.966Z,5.90
2022-12-20T10:46:56.048Z,6.00
2022-12-20T10:49:31.229Z,6.30
2022-12-20T10:52:02.067Z,6.30
2022-12-20T10:54:35.246Z,6.30
2022-12-20T10:57:15.059Z,6.30
2022-12-20T10:59:46.869Z,6.30
2022-12-20T11:02:37.191Z,6.30
2022-12-20T11:05:24.326Z,6.20
2022-12-20T11:10:45.856Z,6.30
2022-12-20T11:13:23.307Z,6.30
2022-12-20T11:15:55.402Z,6.40
2022-12-20T11:18:32.851Z,6.50
2022-12-20T11:21:21.522Z,6.60
2022-12-20T11:24:03.532Z,6.80
2022-12-20T11:26:36.942Z,6.90
2022-12-20T11:29:21.514Z,6.90
2022-12-20T11:31:58.196Z,7.00
2022-12-20T11:34:36.057Z,6.90
2022-12-20T11:37:21.479Z,6.90
2022-12-20T11:40:06.761Z,7.10
2022-12-20T11:42:50.956Z,7.10
2022-12-20T11:45:27.722Z,7.20
2022-12-20T11:48:24.415Z,7.20
2022-12-20T11:51:03.852Z,7.20
2022-12-20T11:53:39.117Z,7.20
2022-12-20T11:56:15.434Z,7.20
2022-12-20T11:58:51.825Z,7.10
2022-12-20T12:01:23.145Z,7.00
2022-12-20T12:04:05.253Z,6.90
2022-12-20T12:06:37.214Z,6.80
2022-12-20T12:09:24.956Z,6.70
2022-12-20T12:12:07.460Z,6.70
2022-12-20T12:14:56.303Z,6.70
2022-12-20T12:17:30.415Z,6.60
2022-12-20T12:20:09.491Z,6.60
2022-12-20T12:22:40.445Z,6.60
2022-12-20T12:25:17.803Z,6.70
2022-12-20T12:27:45.877Z,6.70
2022-12-20T12:30:15.237Z,6.80
2022-12-20T12:32:46.508Z,6.80
2022-12-20T12:35:46.031Z,6.70
2022-12-20T12:38:31.687Z,6.60
2022-12-20T12:41:28.428Z,6.60
2022-12-20T12:43:59.966Z,6.50
2022-12-20T12:46:31.515Z,6.60
2022-12-20T12:49:01.452Z,6.70
2022-12-20T12:51:32.978Z,6.90
2022-12-20T12:54:17.364Z,6.90
2022-12-20T12:56:48.868Z,7.00
2022-12-20T12:59:51.856Z,6.90
2022-12-20T13:02:37.464Z,6.80
2022-12-20T13:05:35.872Z,6.70
2022-12-20T13:08:05.056Z,6.60
2022-12-20T13:11:09.550Z,6.60
2022-12-20T13:13:38.984Z,6.60
2022-12-20T13:17:09.301Z,6.50
2022-12-20T13:19:36.260Z,6.50
2022-12-20T13:22:22.618Z,6.50
2022-12-20T13:24:57.048Z,6.50
2022-12-20T13:27:36.610Z,6.50
2022-12-20T13:30:28.442Z,6.50
2022-12-20T13:33:25.160Z,6.50
2022-12-20T13:36:21.416Z,6.60
2022-12-20T13:38:55.366Z,6.60
2022-12-20T13:41:39.779Z,6.50
2022-12-20T13:44:37.839Z,6.60
2022-12-20T13:47:35.490Z,6.60
2022-12-20T13:50:21.534Z,6.60
2022-12-20T13:52:50.351Z,6.50
2022-12-20T13:55:25.804Z,6.50
2022-12-20T13:57:55.361Z,6.50
2022-12-20T14:00:26.437Z,6.50
2022-12-20T14:02:56.751Z,6.40
2022-12-20T14:05:28.436Z,6.40
2022-12-20T14:08:00.984Z,6.40
2022-12-20T14:10:31.440Z,6.30
2022-12-20T14:12:59.825Z,6.30
2022-12-20T14:15:30.934Z,6.30
2022-12-20T14:18:06.865Z,6.20
2022-12-20T14:20:36.865Z,6.20
2022-12-20T14:23:07.786Z,6.20
2022-12-20T14:25:43.291Z,6.10
2022-12-20T14:28:26.820Z,6.10
2022-12-20T14:30:57.167Z,6.00
2022-12-20T14:33:35.690Z,5.90
2022-12-20T14:36:12.164Z,5.90
2022-12-20T14:38:41.380Z,5.80
2022-12-20T14:41:35.618Z,5.90
2022-12-20T14:44:18.549Z,5.80
2022-12-20T14:46:51.379Z,5.80
2022-12-20T14:49:25.632Z,5.80
2022-12-20T14:52:06.543Z,5.80
2022-12-20T14:57:26.711Z,5.70
2022-12-20T15:00:01.059Z,5.60
2022-12-20T15:02:37.233Z,5.50
2022-12-20T15:05:47.992Z,5.50
2022-12-20T15:08:18.470Z,5.50
2022-12-20T15:10:56.184Z,5.50
2022-12-20T15:13:29.094Z,5.40
2022-12-20T15:15:59.087Z,5.40
2022-12-20T15:18:27.388Z,5.30
2022-12-20T15:21:11.514Z,5.30
2022-12-20T15:23:45.942Z,5.30
2022-12-20T15:26:17.778Z,5.30
2022-12-20T15:28:46.188Z,5.20
2022-12-20T15:31:17.515Z,5.30
2022-12-20T15:33:48.456Z,5.20
2022-12-20T15:36:20.481Z,5.20
2022-12-20T15:41:37.169Z,5.20
2022-12-20T15:44:08.560Z,5.20
2022-12-20T15:46:36.916Z,5.20
2022-12-20T15:49:05.123Z,5.10
2022-12-20T15:51:36.787Z,5.10
2022-12-20T15:54:08.069Z,5.10
2022-12-20T15:56:36.190Z,5.00
2022-12-20T15:59:24.539Z,5.00
2022-12-20T16:01:53.470Z,5.00
2022-12-20T16:04:22.736Z,5.00
2022-12-20T16:06:53.695Z,5.00
2022-12-20T16:09:25.521Z,5.00
2022-12-20T16:11:54.085Z,4.90
2022-12-20T16:14:23.576Z,5.00
2022-12-20T16:16:52.259Z,5.00
2022-12-20T16:19:20.368Z,5.00
2022-12-20T16:21:51.073Z,4.90
2022-12-20T16:24:21.685Z,4.90
2022-12-20T16:26:50.261Z,4.80
2022-12-20T16:29:18.426Z,4.80
2022-12-20T16:31:46.647Z,4.80
2022-12-20T16:34:16.989Z,4.80
2022-12-20T16:36:45.730Z,4.70
2022-12-20T16:39:14.084Z,4.70
2022-12-20T16:41:44.330Z,4.60
2022-12-20T16:44:16.172Z,4.60
2022-12-20T16:46:46.715Z,4.60
2022-12-20T16:49:20.456Z,4.60
2022-12-20T16:51:51.591Z,4.50
2022-12-20T16:54:23.365Z,4.50
2022-12-20T16:56:56.012Z,4.50
2022-12-20T16:59:25.270Z,4.50
2022-12-20T17:01:56.039Z,4.60
2022-12-20T17:04:26.844Z,4.60
2022-12-20T17:06:55.264Z,4.50
2022-12-20T17:09:23.475Z,4.40
2022-12-20T17:11:52.864Z,4.30
2022-12-20T17:14:23.065Z,4.20
2022-12-20T17:16:51.382Z,4.10
2022-12-20T17:19:19.551Z,4.00
2022-12-20T17:24:35.467Z,3.90
2022-12-20T17:27:05.621Z,3.80
2022-12-20T17:29:33.944Z,3.70
2022-12-20T17:32:03.873Z,3.70
2022-12-20T17:34:32.482Z,3.60
2022-12-20T17:37:00.741Z,3.70
2022-12-20T17:39:28.935Z,3.70
2022-12-20T17:41:57.032Z,3.80
2022-12-20T17:44:28.369Z,4.00
2022-12-20T17:46:58.464Z,4.00
2022-12-20T17:49:26.591Z,4.00
2022-12-20T17:51:56.351Z,4.00
2022-12-20T17:54:26.706Z,3.90
2022-12-20T17:56:55.112Z,3.80
2022-12-20T17:59:25.508Z,3.80
2022-12-20T18:01:55.101Z,3.80
2022-12-20T18:04:23.553Z,3.80
2022-12-20T18:06:52.284Z,3.80
2022-12-20T18:09:22.771Z,3.80
2022-12-20T18:11:50.930Z,3.70
2022-12-20T18:14:19.161Z,3.70
2022-12-20T18:16:47.530Z,3.80
2022-12-20T18:19:18.956Z,4.00
2022-12-20T18:21:47.069Z,4.00
2022-12-20T18:24:17.399Z,4.10
2022-12-20T18:26:47.897Z,4.20
2022-12-20T18:29:16.033Z,4.20
2022-12-20T18:31:44.308Z,4.30
2022-12-20T18:34:12.480Z,4.30
2022-12-20T18:36:42.243Z,4.30
2022-12-20T18:39:14.621Z,4.30
2022-12-20T18:41:44.212Z,4.40
2022-12-20T18:44:12.623Z,4.40
2022-12-20T18:46:40.826Z,4.40
2022-12-20T18:49:10.129Z,4.40
2022-12-20T18:51:38.343Z,4.40
2022-12-20T18:54:09.339Z,4.40
2022-12-20T18:56:40.843Z,4.40
2022-12-20T18:59:13.108Z,4.40
2022-12-20T19:01:43.272Z,4.30
2022-12-20T19:04:12.324Z,4.30
2022-12-20T19:06:41.079Z,4.20
2022-12-20T19:09:14.060Z,4.10
2022-12-20T19:11:42.704Z,4.00
2022-12-20T19:14:12.402Z,4.00
2022-12-20T19:16:41.265Z,4.00
2022-12-20T19:19:09.670Z,4.00
2022-12-20T19:21:41.570Z,3.90
2022-12-20T19:24:11.531Z,3.90
2022-12-20T19:26:40.622Z,4.00
2022-12-20T19:29:09.395Z,4.00
2022-12-20T19:31:40.096Z,4.10
2022-12-20T19:34:11.705Z,4.10
2022-12-20T19:36:41.884Z,4.20
2022-12-20T19:39:20.412Z,4.20
2022-12-20T19:42:21.775Z,4.30
2022-12-20T19:44:40.179Z,4.30
2022-12-20T19:47:08.346Z,4.50
2022-12-20T19:49:36.794Z,4.50
2022-12-20T19:52:06.132Z,4.50
2022-12-20T19:54:36.287Z,4.50
2022-12-20T19:57:04.483Z,4.60
2022-12-20T19:59:32.979Z,4.60
2022-12-20T20:02:01.389Z,4.70
2022-12-20T20:04:29.988Z,4.70
2022-12-20T20:06:58.189Z,4.80
2022-12-20T20:09:26.747Z,4.80
2022-12-20T20:11:56.240Z,4.80
2022-12-20T20:14:24.604Z,4.80
2022-12-20T20:16:55.147Z,4.90
2022-12-20T20:19:23.337Z,4.90
2022-12-20T20:21:51.669Z,4.90
2022-12-20T20:24:20.811Z,4.80
2022-12-20T20:26:51.938Z,4.80
2022-12-20T20:29:21.665Z,4.80
2022-12-20T20:31:50.129Z,4.80
2022-12-20T20:34:21.737Z,4.80
2022-12-20T20:36:49.952Z,4.80
2022-12-20T20:39:18.456Z,4.80
2022-12-20T20:41:46.845Z,4.80
2022-12-20T20:44:15.013Z,4.80
2022-12-20T20:46:44.649Z,4.80
2022-12-20T20:49:12.845Z,4.70
2022-12-20T20:51:41.285Z,4.80
2022-12-20T20:54:10.493Z,4.70
2022-12-20T20:56:38.732Z,4.70
2022-12-20T20:59:09.416Z,4.70
2022-12-20T21:01:45.007Z,4.70
2022-12-20T21:04:13.130Z,4.60
2022-12-20T21:06:42.175Z,4.60
2022-12-20T21:09:11.463Z,4.60
2022-12-20T21:11:40.179Z,4.60
2022-12-20T21:14:08.421Z,4.60
2022-12-20T21:16:36.919Z,4.60
2022-12-20T21:19:06.662Z,4.60
2022-12-20T21:21:34.773Z,4.60
2022-12-20T21:24:02.970Z,4.50
2022-12-20T21:26:31.158Z,4.50
2022-12-20T21:29:01.032Z,4.50
2022-12-20T21:31:29.653Z,4.60
2022-12-20T21:33:58.623Z,4.60
2022-12-20T21:36:28.075Z,4.60
2022-12-20T21:38:58.428Z,4.60
2022-12-20T21:41:27.752Z,4.60
2022-12-20T21:43:56.904Z,4.60
2022-12-20T21:46:25.648Z,4.60
2022-12-20T21:48:53.993Z,4.70
2022-12-20T21:51:26.442Z,4.60
2022-12-20T21:53:59.969Z,4.60
2022-12-20T21:56:29.730Z,4.70
2022-12-20T21:58:58.535Z,4.70
2022-12-20T22:01:28.885Z,4.80
2022-12-20T22:04:01.348Z,4.80
2022-12-20T22:06:30.001Z,4.80
2022-12-20T22:08:59.948Z,4.90
2022-12-20T22:11:28.100Z,4.80
2022-12-20T22:13:58.531Z,4.90
2022-12-20T22:16:30.110Z,4.90
2022-12-20T22:18:59.496Z,5.00
2022-12-20T22:21:30.117Z,4.90
2022-12-20T22:24:00.975Z,4.90
2022-12-20T22:26:31.908Z,4.90
2022-12-20T22:29:02.673Z,4.90
2022-12-20T22:31:31.517Z,4.90
2022-12-20T22:34:00.180Z,4.90
2022-12-20T22:36:30.836Z,4.90
2022-12-20T22:39:00.538Z,4.80
2022-12-20T22:41:34.598Z,4.80
2022-12-20T22:44:02.832Z,4.70
2022-12-20T22:46:33.576Z,4.70
2022-12-20T22:49:02.388Z,4.70
2022-12-20T22:51:33.268Z,4.70
2022-12-20T22:54:05.496Z,4.70
2022-12-20T22:56:33.651Z,4.70
2022-12-20T22:59:02.107Z,4.70
2022-12-20T23:01:30.467Z,4.80
2022-12-20T23:03:59.892Z,4.70
2022-12-20T23:06:30.458Z,4.70
2022-12-20T23:08:58.603Z,4.60
2022-12-20T23:11:47.217Z,4.60
2022-12-20T23:14:34.713Z,4.60
2022-12-20T23:17:03.249Z,4.70
2022-12-20T23:19:53.052Z,4.70
2022-12-20T23:22:39.304Z,4.70
2022-12-20T23:25:10.761Z,4.60
2022-12-20T23:27:42.238Z,4.60
2022-12-20T23:30:12.577Z,4.60
2022-12-20T23:32:44.270Z,4.60
2022-12-20T23:35:17.238Z,4.50
2022-12-20T23:37:45.928Z,4.50
2022-12-20T23:40:16.167Z,4.60
2022-12-20T23:42:46.086Z,4.70
2022-12-20T23:45:14.644Z,4.70
2022-12-20T23:47:45.812Z,4.80
2022-12-20T23:50:15.009Z,4.80
2022-12-20T23:52:43.107Z,4.80
2022-12-20T23:55:11.320Z,4.80
2022-12-20T23:57:39.961Z,4.80
